createdAt,value
2023-04-02T00:00:59.346Z,96.65
2023-04-02T00:01:59.436Z,96.65
2023-04-02T00:02:59.371Z,96.65
2023-04-02T00:03:59.553Z,96.75
2023-04-02T00:04:59.304Z,96.75
2023-04-02T00:05:59.300Z,96.85
2023-04-02T00:06:59.276Z,96.85
2023-04-02T00:07:59.309Z,96.85
2023-04-02T00:08:59.252Z,96.85
2023-04-02T00:09:59.249Z,96.65
2023-04-02T00:10:59.230Z,96.65
2023-04-02T00:11:59.217Z,96.65
2023-04-02T00:12:59.206Z,96.69
2023-04-02T00:13:59.244Z,96.65
2023-04-02T00:14:59.189Z,96.65
2023-04-02T00:15:59.237Z,96.65
2023-04-02T00:16:59.174Z,96.65
2023-04-02T00:17:59.274Z,96.55
2023-04-02T00:18:59.167Z,96.55
2023-04-02T00:19:59.221Z,96.65
2023-04-02T00:20:59.140Z,96.65
2023-04-02T00:21:59.135Z,96.75
2023-04-02T00:22:59.119Z,96.75
2023-04-02T00:23:59.128Z,96.75
2023-04-02T00:24:59.082Z,96.85
2023-04-02T00:25:59.122Z,96.90
2023-04-02T00:26:59.066Z,96.90
2023-04-02T00:27:59.068Z,96.85
2023-04-02T00:28:59.064Z,96.80
2023-04-02T00:29:59.066Z,96.80
2023-04-02T00:30:59.039Z,96.69
2023-04-02T00:31:59.121Z,96.48
2023-04-02T00:32:59.104Z,96.48
2023-04-02T00:33:59.009Z,96.48
2023-04-02T00:34:59.003Z,96.48
2023-04-02T00:35:59.001Z,96.48
2023-04-02T00:36:58.964Z,96.48
2023-04-02T00:37:58.990Z,96.48
2023-04-02T00:38:58.941Z,96.39
2023-04-02T00:39:58.946Z,96.39
2023-04-02T00:40:58.943Z,96.39
2023-04-02T00:41:58.938Z,96.39
2023-04-02T00:42:59.424Z,96.39
2023-04-02T00:43:58.928Z,96.39
2023-04-02T00:44:58.913Z,96.39
2023-04-02T00:45:58.938Z,96.39
2023-04-02T00:46:58.884Z,96.39
2023-04-02T00:47:58.926Z,96.39
2023-04-02T00:48:58.890Z,96.39
2023-04-02T00:49:58.846Z,96.39
2023-04-02T00:50:58.833Z,96.39
2023-04-02T00:51:58.827Z,96.34
2023-04-02T00:52:58.838Z,96.23
2023-04-02T00:53:58.807Z,96.28
2023-04-02T00:54:58.780Z,96.23
2023-04-02T00:55:58.801Z,96.18
2023-04-02T00:56:58.834Z,96.18
2023-04-02T00:57:58.770Z,96.08
2023-04-02T00:58:58.782Z,95.97
2023-04-02T00:59:58.744Z,96.08
2023-04-02T01:00:58.763Z,96.18
2023-04-02T01:01:58.733Z,96.28
2023-04-02T01:02:58.774Z,96.39
2023-04-02T01:03:58.715Z,96.39
2023-04-02T01:04:58.686Z,96.28
2023-04-02T01:05:58.683Z,96.18
2023-04-02T01:06:58.670Z,96.08
2023-04-02T01:07:58.665Z,96.18
2023-04-02T01:08:58.655Z,96.28
2023-04-02T01:09:58.658Z,96.28
2023-04-02T01:10:58.632Z,96.28
2023-04-02T01:11:58.633Z,96.39
2023-04-02T01:12:58.602Z,96.39
2023-04-02T01:13:58.592Z,96.39
2023-04-02T01:14:58.635Z,96.28
2023-04-02T01:15:58.620Z,96.18
2023-04-02T01:16:58.571Z,96.18
2023-04-02T01:17:58.663Z,96.39
2023-04-02T01:18:58.559Z,96.39
2023-04-02T01:19:58.675Z,96.28
2023-04-02T01:20:58.550Z,96.39
2023-04-02T01:21:58.507Z,96.48
2023-04-02T01:22:58.496Z,96.48
2023-04-02T01:23:58.483Z,96.48
2023-04-02T01:24:58.478Z,96.48
2023-04-02T01:25:58.488Z,96.48
2023-04-02T01:26:58.475Z,96.48
2023-04-02T01:27:58.444Z,96.59
2023-04-02T01:28:58.436Z,96.59
2023-04-02T01:29:58.471Z,96.48
2023-04-02T01:30:58.463Z,96.39
2023-04-02T01:31:58.427Z,96.39
2023-04-02T01:32:58.426Z,96.39
2023-04-02T01:33:58.390Z,96.48
2023-04-02T01:34:58.442Z,96.48
2023-04-02T01:35:58.390Z,96.48
2023-04-02T01:36:58.358Z,96.48
2023-04-02T01:37:58.356Z,96.59
2023-04-02T01:38:58.334Z,96.59
2023-04-02T01:39:58.344Z,96.59
2023-04-02T01:40:58.367Z,96.59
2023-04-02T01:41:58.322Z,96.59
2023-04-02T01:42:58.297Z,96.69
2023-04-02T01:43:58.306Z,96.69
2023-04-02T01:44:58.269Z,96.80
2023-04-02T01:45:58.270Z,96.80
2023-04-02T01:46:58.268Z,96.69
2023-04-02T01:47:58.290Z,96.80
2023-04-02T01:48:58.239Z,96.69
2023-04-02T01:49:58.228Z,96.69
2023-04-02T01:50:58.223Z,96.69
2023-04-02T01:51:58.223Z,96.59
2023-04-02T01:52:58.196Z,96.59
2023-04-02T01:53:58.198Z,96.48
2023-04-02T01:54:58.186Z,96.39
2023-04-02T01:55:58.177Z,96.39
2023-04-02T01:56:58.261Z,96.34
2023-04-02T01:57:58.155Z,96.48
2023-04-02T01:58:58.136Z,96.44
2023-04-02T01:59:58.137Z,96.44
2023-04-02T02:00:58.189Z,96.44
2023-04-02T02:01:58.160Z,96.44
2023-04-02T02:02:58.133Z,96.44
2023-04-02T02:03:58.084Z,96.44
2023-04-02T02:04:58.069Z,96.34
2023-04-02T02:05:58.067Z,96.23
2023-04-02T02:06:58.050Z,96.23
2023-04-02T02:07:58.076Z,96.34
2023-04-02T02:08:58.057Z,96.34
2023-04-02T02:09:58.058Z,96.44
2023-04-02T02:10:58.015Z,96.44
2023-04-02T02:11:58.016Z,96.44
2023-04-02T02:12:58.009Z,96.55
2023-04-02T02:13:58.012Z,96.55
2023-04-02T02:14:57.995Z,96.55
2023-04-02T02:15:57.999Z,96.55
2023-04-02T02:16:57.947Z,96.55
2023-04-02T02:17:58.012Z,96.44
2023-04-02T02:18:57.935Z,96.44
2023-04-02T02:19:57.945Z,96.44
2023-04-02T02:20:57.906Z,96.44
2023-04-02T02:21:57.914Z,96.55
2023-04-02T02:22:57.888Z,96.55
2023-04-02T02:23:57.873Z,96.44
2023-04-02T02:24:57.931Z,96.44
2023-04-02T02:25:57.888Z,96.44
2023-04-02T02:26:57.869Z,96.34
2023-04-02T02:27:57.862Z,96.34
2023-04-02T02:28:57.847Z,96.23
2023-04-02T02:29:57.829Z,96.14
2023-04-02T02:30:57.848Z,96.03
2023-04-02T02:31:57.849Z,96.03
2023-04-02T02:32:57.841Z,96.03
2023-04-02T02:33:57.780Z,96.03
2023-04-02T02:34:57.765Z,96.03
2023-04-02T02:35:57.823Z,96.14
2023-04-02T02:36:57.760Z,96.14
2023-04-02T02:37:57.766Z,96.03
2023-04-02T02:38:57.752Z,96.03
2023-04-02T02:39:57.728Z,96.14
2023-04-02T02:40:57.717Z,96.23
2023-04-02T02:41:57.747Z,96.23
2023-04-02T02:42:57.693Z,96.34
2023-04-02T02:43:57.674Z,96.34
2023-04-02T02:44:57.690Z,96.44
2023-04-02T02:45:57.681Z,96.44
2023-04-02T02:46:57.652Z,96.34
2023-04-02T02:47:57.715Z,96.34
2023-04-02T02:48:57.645Z,96.34
2023-04-02T02:49:59.083Z,96.44
2023-04-02T02:50:57.644Z,96.44
2023-04-02T02:51:57.602Z,96.44
2023-04-02T02:52:57.610Z,96.55
2023-04-02T02:53:57.615Z,96.44
2023-04-02T02:54:57.590Z,96.44
2023-04-02T02:55:57.579Z,96.48
2023-04-02T02:56:57.631Z,96.44
2023-04-02T02:57:57.564Z,96.44
2023-04-02T02:58:57.529Z,96.44
2023-04-02T02:59:57.505Z,96.23
2023-04-02T03:00:57.555Z,95.83
2023-04-02T03:01:57.484Z,96.08
2023-04-02T03:02:57.619Z,96.28
2023-04-02T03:03:57.704Z,96.39
2023-04-02T03:04:57.472Z,96.59
2023-04-02T03:05:57.454Z,96.69
2023-04-02T03:06:57.456Z,96.80
2023-04-02T03:07:57.437Z,96.90
2023-04-02T03:08:57.415Z,96.80
2023-04-02T03:09:57.447Z,96.80
2023-04-02T03:10:57.398Z,96.80
2023-04-02T03:11:57.398Z,96.80
2023-04-02T03:12:57.398Z,96.80
2023-04-02T03:13:57.382Z,96.80
2023-04-02T03:14:57.368Z,96.90
2023-04-02T03:15:57.409Z,96.90
2023-04-02T03:16:57.354Z,96.90
2023-04-02T03:17:57.385Z,96.80
2023-04-02T03:18:57.325Z,96.80
2023-04-02T03:19:57.326Z,96.75
2023-04-02T03:20:57.313Z,96.80
2023-04-02T03:21:57.319Z,96.80
2023-04-02T03:22:57.286Z,96.80
2023-04-02T03:23:57.256Z,96.80
2023-04-02T03:24:57.263Z,96.80
2023-04-02T03:25:57.250Z,96.80
2023-04-02T03:26:57.265Z,96.80
2023-04-02T03:27:57.256Z,96.80
2023-04-02T03:28:57.245Z,96.80
2023-04-02T03:29:57.227Z,96.69
2023-04-02T03:30:57.242Z,96.69
2023-04-02T03:31:57.206Z,96.80
2023-04-02T03:32:57.261Z,96.69
2023-04-02T03:33:57.187Z,96.69
2023-04-02T03:34:57.173Z,96.69
2023-04-02T03:35:57.171Z,96.69
2023-04-02T03:36:57.147Z,96.80
2023-04-02T03:37:57.135Z,96.90
2023-04-02T03:38:57.163Z,97.00
2023-04-02T03:39:57.110Z,97.00
2023-04-02T03:40:57.117Z,97.10
2023-04-02T03:41:57.092Z,97.10
2023-04-02T03:42:57.090Z,97.10
2023-04-02T03:43:57.082Z,97.10
2023-04-02T03:44:57.090Z,97.20
2023-04-02T03:45:57.047Z,97.20
2023-04-02T03:46:57.044Z,97.20
2023-04-02T03:47:57.100Z,97.31
2023-04-02T03:48:57.015Z,97.31
2023-04-02T03:49:57.027Z,97.31
2023-04-02T03:50:57.003Z,97.41
2023-04-02T03:51:56.977Z,97.41
2023-04-02T03:52:56.995Z,97.41
2023-04-02T03:53:56.977Z,97.41
2023-04-02T03:54:56.966Z,97.52
2023-04-02T03:55:56.980Z,97.52
2023-04-02T03:56:56.999Z,97.52
2023-04-02T03:57:56.943Z,97.62
2023-04-02T03:58:56.935Z,97.72
2023-04-02T03:59:56.920Z,97.72
2023-04-02T04:00:56.902Z,97.82
2023-04-02T04:01:56.975Z,97.82
2023-04-02T04:02:56.921Z,97.10
2023-04-02T04:03:56.902Z,96.94
2023-04-02T04:04:56.862Z,96.73
2023-04-02T04:05:56.854Z,96.73
2023-04-02T04:06:56.832Z,96.73
2023-04-02T04:07:56.940Z,95.71
2023-04-02T04:08:56.828Z,95.40
2023-04-02T04:09:56.821Z,94.99
2023-04-02T04:10:56.843Z,94.73
2023-04-02T04:11:56.800Z,94.83
2023-04-02T04:12:56.803Z,94.83
2023-04-02T04:13:56.795Z,94.21
2023-04-02T04:14:56.767Z,94.21
2023-04-02T04:15:56.752Z,94.42
2023-04-02T04:16:56.858Z,94.11
2023-04-02T04:17:56.755Z,93.90
2023-04-02T04:18:56.720Z,93.29
2023-04-02T04:19:56.693Z,93.54
2023-04-02T04:20:57.033Z,93.74
2023-04-02T04:21:56.682Z,94.05
2023-04-02T04:22:56.689Z,94.26
2023-04-02T04:23:56.671Z,94.46
2023-04-02T04:24:56.675Z,94.46
2023-04-02T04:25:56.649Z,94.36
2023-04-02T04:26:56.650Z,94.46
2023-04-02T04:27:56.667Z,94.67
2023-04-02T04:28:56.619Z,94.77
2023-04-02T04:29:56.614Z,94.67
2023-04-02T04:30:56.633Z,94.56
2023-04-02T04:31:56.626Z,94.26
2023-04-02T04:32:56.656Z,93.64
2023-04-02T04:33:56.552Z,93.16
2023-04-02T04:34:56.556Z,93.16
2023-04-02T04:35:56.606Z,93.48
2023-04-02T04:36:56.590Z,93.83
2023-04-02T04:37:56.526Z,94.03
2023-04-02T04:38:56.508Z,94.03
2023-04-02T04:39:56.514Z,93.73
2023-04-02T04:40:56.502Z,93.73
2023-04-02T04:41:56.496Z,93.73
2023-04-02T04:42:56.530Z,93.73
2023-04-02T04:43:56.462Z,93.73
2023-04-02T04:44:56.453Z,93.62
2023-04-02T04:45:56.488Z,93.41
2023-04-02T04:46:56.471Z,93.31
2023-04-02T04:47:56.486Z,93.62
2023-04-02T04:48:56.434Z,93.52
2023-04-02T04:49:56.406Z,93.01
2023-04-02T04:50:56.396Z,93.01
2023-04-02T04:51:56.395Z,92.59
2023-04-02T04:52:56.387Z,92.74
2023-04-02T04:53:56.395Z,93.15
2023-04-02T04:54:56.371Z,93.46
2023-04-02T04:55:59.719Z,93.77
2023-04-02T04:56:56.395Z,93.66
2023-04-02T04:57:56.307Z,93.66
2023-04-02T04:58:56.315Z,93.15
2023-04-02T04:59:56.310Z,92.74
2023-04-02T05:00:56.284Z,92.94
2023-04-02T05:01:56.372Z,93.05
2023-04-02T05:02:56.323Z,92.94
2023-04-02T05:03:56.262Z,92.74
2023-04-02T05:04:56.319Z,92.43
2023-04-02T05:05:56.247Z,92.53
2023-04-02T05:06:56.253Z,92.53
2023-04-02T05:07:57.087Z,91.81
2023-04-02T05:08:56.231Z,92.37
2023-04-02T05:09:56.207Z,92.43
2023-04-02T05:10:56.231Z,92.63
2023-04-02T05:11:56.196Z,92.27
2023-04-02T05:12:56.217Z,92.16
2023-04-02T05:13:56.161Z,92.47
2023-04-02T05:14:56.144Z,92.57
2023-04-02T05:15:56.151Z,92.57
2023-04-02T05:16:56.151Z,92.27
2023-04-02T05:17:56.184Z,92.37
2023-04-02T05:18:56.111Z,92.16
2023-04-02T05:19:56.121Z,92.06
2023-04-02T05:20:56.094Z,92.37
2023-04-02T05:21:56.104Z,92.37
2023-04-02T05:22:56.067Z,92.06
2023-04-02T05:23:56.057Z,91.75
2023-04-02T05:24:56.035Z,91.34
2023-04-02T05:25:56.034Z,91.34
2023-04-02T05:26:56.047Z,91.54
2023-04-02T05:27:56.013Z,91.44
2023-04-02T05:28:56.026Z,91.17
2023-04-02T05:29:56.047Z,91.58
2023-04-02T05:30:56.025Z,92.10
2023-04-02T05:31:55.988Z,92.51
2023-04-02T05:32:56.531Z,92.72
2023-04-02T05:33:55.961Z,92.31
2023-04-02T05:34:55.954Z,92.21
2023-04-02T05:35:55.979Z,92.21
2023-04-02T05:36:55.923Z,92.31
2023-04-02T05:37:55.913Z,92.41
2023-04-02T05:38:55.927Z,92.10
2023-04-02T05:39:55.903Z,92.10
2023-04-02T05:40:55.876Z,92.31
2023-04-02T05:41:55.872Z,92.10
2023-04-02T05:42:55.866Z,92.10
2023-04-02T05:43:55.874Z,92.21
2023-04-02T05:44:55.862Z,91.79
2023-04-02T05:45:55.847Z,91.48
2023-04-02T05:46:55.917Z,91.58
2023-04-02T05:47:55.846Z,91.89
2023-04-02T05:48:55.820Z,92.10
2023-04-02T05:49:55.815Z,92.41
2023-04-02T05:50:55.792Z,92.51
2023-04-02T05:51:57.423Z,92.41
2023-04-02T05:52:55.793Z,91.58
2023-04-02T05:53:55.770Z,91.79
2023-04-02T05:54:55.763Z,91.28
2023-04-02T05:55:55.781Z,90.86
2023-04-02T05:56:55.778Z,90.80
2023-04-02T05:58:13.621Z,90.49
2023-04-02T05:58:55.869Z,91.01
2023-04-02T05:59:55.701Z,91.32
2023-04-02T06:00:55.722Z,91.58
2023-04-02T06:01:55.723Z,90.91
2023-04-02T06:02:55.707Z,90.28
2023-04-02T06:03:55.696Z,90.80
2023-04-02T06:04:55.655Z,90.80
2023-04-02T06:05:55.628Z,91.01
2023-04-02T06:06:55.659Z,90.59
2023-04-02T06:07:55.609Z,90.59
2023-04-02T06:08:55.627Z,90.59
2023-04-02T06:09:55.608Z,90.80
2023-04-02T06:10:55.590Z,90.49
2023-04-02T06:11:55.583Z,90.28
2023-04-02T06:12:56.047Z,90.28
2023-04-02T06:13:55.562Z,90.59
2023-04-02T06:14:55.557Z,90.39
2023-04-02T06:15:55.547Z,90.59
2023-04-02T06:16:55.626Z,91.11
2023-04-02T06:17:55.509Z,91.22
2023-04-02T06:18:55.536Z,90.49
2023-04-02T06:19:55.491Z,90.70
2023-04-02T06:20:55.568Z,90.70
2023-04-02T06:21:55.578Z,90.70
2023-04-02T06:22:55.478Z,90.91
2023-04-02T06:23:55.511Z,90.91
2023-04-02T06:24:55.442Z,91.42
2023-04-02T06:25:55.426Z,91.22
2023-04-02T06:26:55.421Z,91.16
2023-04-02T06:27:55.414Z,91.36
2023-04-02T06:28:55.396Z,91.77
2023-04-02T06:29:55.498Z,91.26
2023-04-02T06:30:55.390Z,91.36
2023-04-02T06:31:55.369Z,91.05
2023-04-02T06:32:55.431Z,91.26
2023-04-02T06:33:55.366Z,90.95
2023-04-02T06:34:55.350Z,91.26
2023-04-02T06:35:55.389Z,91.46
2023-04-02T06:36:55.332Z,91.67
2023-04-02T06:37:55.357Z,91.88
2023-04-02T06:38:55.315Z,91.88
2023-04-02T06:39:55.306Z,91.88
2023-04-02T06:40:56.958Z,91.88
2023-04-02T06:41:55.268Z,91.88
2023-04-02T06:42:55.267Z,91.77
2023-04-02T06:43:55.287Z,91.77
2023-04-02T06:44:55.233Z,91.26
2023-04-02T06:45:55.296Z,91.67
2023-04-02T06:46:55.225Z,91.36
2023-04-02T06:47:55.260Z,91.36
2023-04-02T06:48:55.250Z,91.36
2023-04-02T06:49:55.204Z,90.95
2023-04-02T06:50:55.201Z,90.95
2023-04-02T06:51:55.191Z,91.05
2023-04-02T06:52:55.163Z,91.16
2023-04-02T06:53:55.158Z,91.36
2023-04-02T06:54:55.228Z,91.26
2023-04-02T06:55:55.153Z,90.95
2023-04-02T06:56:55.173Z,91.26
2023-04-02T06:57:55.121Z,91.77
2023-04-02T06:58:55.106Z,91.71
2023-04-02T06:59:55.099Z,91.71
2023-04-02T07:00:55.128Z,91.40
2023-04-02T07:01:55.160Z,91.30
2023-04-02T07:02:55.120Z,91.30
2023-04-02T07:03:55.072Z,92.02
2023-04-02T07:04:55.079Z,91.82
2023-04-02T07:05:55.033Z,92.02
2023-04-02T07:06:55.053Z,92.02
2023-04-02T07:07:55.000Z,91.71
2023-04-02T07:08:54.986Z,92.07
2023-04-02T07:09:55.012Z,92.07
2023-04-02T07:10:54.974Z,91.71
2023-04-02T07:11:54.970Z,91.44
2023-04-02T07:12:54.968Z,92.17
2023-04-02T07:13:54.964Z,92.38
2023-04-02T07:14:54.944Z,92.58
2023-04-02T07:15:54.989Z,92.38
2023-04-02T07:16:54.929Z,91.65
2023-04-02T07:17:55.007Z,91.55
2023-04-02T07:18:54.908Z,91.75
2023-04-02T07:19:54.915Z,92.17
2023-04-02T07:20:54.908Z,92.23
2023-04-02T07:21:54.860Z,91.50
2023-04-02T07:22:54.847Z,91.30
2023-04-02T07:23:54.840Z,91.55
2023-04-02T07:24:54.841Z,91.61
2023-04-02T07:25:54.876Z,90.93
2023-04-02T07:26:54.817Z,90.83
2023-04-02T07:27:54.816Z,91.24
2023-04-02T07:28:54.786Z,91.44
2023-04-02T07:29:54.776Z,91.24
2023-04-02T07:30:54.771Z,91.24
2023-04-02T07:31:54.799Z,91.13
2023-04-02T07:32:54.806Z,91.17
2023-04-02T07:33:54.759Z,90.97
2023-04-02T07:34:54.730Z,91.49
2023-04-02T07:35:54.799Z,91.17
2023-04-02T07:36:54.729Z,91.28
2023-04-02T07:37:54.733Z,90.56
2023-04-02T07:38:54.707Z,91.07
2023-04-02T07:39:54.687Z,91.38
2023-04-02T07:40:54.683Z,90.66
2023-04-02T07:41:54.721Z,90.56
2023-04-02T07:42:54.677Z,91.07
2023-04-02T07:43:54.657Z,90.87
2023-04-02T07:44:54.622Z,90.62
2023-04-02T07:45:54.617Z,90.72
2023-04-02T07:46:54.660Z,90.41
2023-04-02T07:47:54.662Z,90.10
2023-04-02T07:48:54.593Z,89.38
2023-04-02T07:49:54.588Z,89.28
2023-04-02T07:50:54.574Z,89.32
2023-04-02T07:51:54.568Z,89.62
2023-04-02T07:52:54.554Z,89.52
2023-04-02T07:53:54.577Z,89.11
2023-04-02T07:54:54.533Z,89.11
2023-04-02T07:55:54.531Z,89.52
2023-04-02T07:56:54.587Z,89.32
2023-04-02T07:57:54.506Z,89.32
2023-04-02T07:58:54.492Z,89.11
2023-04-02T07:59:54.525Z,88.90
2023-04-02T08:00:54.472Z,88.90
2023-04-02T08:01:54.521Z,89.04
2023-04-02T08:02:54.542Z,89.67
2023-04-02T08:03:54.827Z,89.98
2023-04-02T08:04:54.450Z,90.50
2023-04-02T08:05:54.473Z,90.08
2023-04-02T08:06:54.416Z,89.25
2023-04-02T08:07:54.416Z,89.36
2023-04-02T08:08:54.385Z,89.87
2023-04-02T08:09:54.383Z,90.50
2023-04-02T08:10:54.369Z,90.70
2023-04-02T08:11:54.411Z,90.80
2023-04-02T08:12:54.339Z,90.80
2023-04-02T08:13:54.361Z,90.60
2023-04-02T08:14:54.328Z,89.83
2023-04-02T08:15:54.316Z,89.52
2023-04-02T08:16:54.403Z,89.32
2023-04-02T08:17:54.438Z,89.22
2023-04-02T08:18:54.305Z,88.39
2023-04-02T08:19:55.324Z,88.49
2023-04-02T08:20:54.303Z,87.87
2023-04-02T08:21:54.296Z,88.80
2023-04-02T08:22:54.292Z,88.49
2023-04-02T08:23:54.263Z,88.28
2023-04-02T08:24:54.244Z,87.97
2023-04-02T08:25:54.234Z,88.18
2023-04-02T08:26:54.239Z,88.59
2023-04-02T08:27:54.231Z,88.01
2023-04-02T08:28:54.209Z,87.39
2023-04-02T08:29:54.194Z,87.39
2023-04-02T08:30:54.185Z,87.49
2023-04-02T08:31:54.174Z,87.35
2023-04-02T08:32:54.258Z,87.66
2023-04-02T08:33:54.264Z,87.87
2023-04-02T08:34:54.141Z,87.15
2023-04-02T08:35:54.187Z,87.76
2023-04-02T08:36:54.154Z,87.35
2023-04-02T08:37:54.115Z,87.56
2023-04-02T08:38:54.108Z,87.76
2023-04-02T08:39:54.126Z,87.56
2023-04-02T08:40:54.080Z,87.73
2023-04-02T08:41:54.076Z,87.62
2023-04-02T08:42:54.048Z,87.52
2023-04-02T08:43:54.038Z,88.04
2023-04-02T08:44:54.031Z,88.34
2023-04-02T08:45:54.054Z,87.41
2023-04-02T08:46:54.008Z,86.28
2023-04-02T08:47:54.110Z,86.18
2023-04-02T08:48:53.998Z,85.97
2023-04-02T08:49:53.989Z,86.69
2023-04-02T08:50:54.304Z,86.90
2023-04-02T08:51:53.983Z,86.49
2023-04-02T08:52:53.966Z,86.18
2023-04-02T08:53:53.956Z,86.90
2023-04-02T08:54:53.948Z,87.41
2023-04-02T08:55:53.945Z,87.41
2023-04-02T08:56:53.969Z,87.41
2023-04-02T08:57:53.903Z,87.00
2023-04-02T08:58:53.886Z,87.62
2023-04-02T08:59:53.885Z,87.31
2023-04-02T09:00:53.873Z,86.90
2023-04-02T09:01:53.935Z,88.14
2023-04-02T09:02:53.910Z,88.55
2023-04-02T09:03:53.846Z,88.61
2023-04-02T09:04:53.862Z,87.00
2023-04-02T09:05:53.810Z,87.27
2023-04-02T09:06:53.808Z,87.48
2023-04-02T09:07:53.801Z,87.68
2023-04-02T09:08:53.810Z,87.27
2023-04-02T09:09:53.776Z,87.48
2023-04-02T09:10:53.766Z,87.17
2023-04-02T09:11:53.760Z,86.86
2023-04-02T09:12:53.789Z,86.49
2023-04-02T09:13:53.777Z,87.73
2023-04-02T09:14:53.737Z,87.21
2023-04-02T09:15:53.734Z,86.69
2023-04-02T09:16:53.726Z,87.41
2023-04-02T09:17:54.614Z,87.21
2023-04-02T09:18:54.046Z,87.73
2023-04-02T09:19:53.695Z,87.31
2023-04-02T09:20:53.668Z,87.10
2023-04-02T09:21:53.691Z,87.10
2023-04-02T09:22:53.652Z,86.79
2023-04-02T09:23:53.642Z,86.69
2023-04-02T09:24:53.667Z,86.79
2023-04-02T09:26:03.515Z,86.90
2023-04-02T09:26:53.604Z,86.79
2023-04-02T09:27:53.601Z,86.69
2023-04-02T09:28:53.610Z,86.59
2023-04-02T09:29:53.634Z,87.10
2023-04-02T09:30:53.572Z,87.48
2023-04-02T09:31:53.641Z,87.37
2023-04-02T09:32:53.585Z,87.37
2023-04-02T09:33:53.551Z,87.00
2023-04-02T09:34:53.536Z,86.38
2023-04-02T09:35:53.589Z,85.86
2023-04-02T09:36:53.510Z,87.21
2023-04-02T09:37:53.508Z,87.21
2023-04-02T09:38:53.483Z,87.41
2023-04-02T09:39:53.480Z,87.31
2023-04-02T09:40:53.504Z,86.90
2023-04-02T09:42:02.739Z,87.00
2023-04-02T09:42:53.451Z,86.28
2023-04-02T09:43:53.440Z,86.63
2023-04-02T09:44:53.435Z,87.00
2023-04-02T09:45:53.454Z,87.83
2023-04-02T09:46:53.464Z,87.21
2023-04-02T09:47:53.448Z,87.41
2023-04-02T09:48:53.475Z,87.52
2023-04-02T09:49:53.377Z,87.62
2023-04-02T09:50:53.378Z,87.21
2023-04-02T09:51:53.391Z,87.10
2023-04-02T09:52:53.370Z,86.69
2023-04-02T09:53:53.361Z,87.10
2023-04-02T09:54:53.342Z,86.90
2023-04-02T09:55:53.333Z,87.41
2023-04-02T09:56:53.334Z,87.58
2023-04-02T09:57:53.334Z,87.58
2023-04-02T09:58:53.303Z,87.58
2023-04-02T09:59:53.297Z,87.27
2023-04-02T10:00:53.298Z,87.58
2023-04-02T10:01:53.261Z,85.62
2023-04-02T10:02:53.307Z,86.65
2023-04-02T10:03:53.268Z,87.07
2023-04-02T10:04:53.230Z,86.96
2023-04-02T10:05:53.240Z,87.37
2023-04-02T10:06:53.231Z,87.37
2023-04-02T10:07:53.214Z,87.65
2023-04-02T10:08:53.222Z,86.13
2023-04-02T10:09:53.181Z,86.24
2023-04-02T10:10:53.165Z,86.55
2023-04-02T10:11:53.171Z,86.55
2023-04-02T10:12:53.150Z,85.83
2023-04-02T10:13:53.159Z,85.83
2023-04-02T10:14:53.149Z,86.76
2023-04-02T10:15:53.137Z,86.44
2023-04-02T10:16:53.297Z,85.52
2023-04-02T10:17:53.153Z,85.72
2023-04-02T10:18:53.103Z,86.96
2023-04-02T10:19:53.117Z,87.17
2023-04-02T10:20:53.080Z,87.48
2023-04-02T10:21:53.079Z,85.78
2023-04-02T10:22:53.059Z,85.58
2023-04-02T10:23:53.056Z,85.58
2023-04-02T10:24:53.033Z,85.47
2023-04-02T10:25:53.054Z,85.68
2023-04-02T10:26:53.008Z,86.26
2023-04-02T10:27:52.987Z,86.26
2023-04-02T10:28:52.996Z,86.47
2023-04-02T10:29:52.990Z,86.26
2023-04-02T10:30:53.008Z,85.75
2023-04-02T10:31:52.984Z,85.33
2023-04-02T10:32:53.081Z,85.13
2023-04-02T10:33:52.955Z,84.92
2023-04-02T10:34:52.956Z,85.09
2023-04-02T10:35:52.981Z,84.36
2023-04-02T10:36:52.951Z,82.40
2023-04-02T10:37:52.907Z,82.30
2023-04-02T10:38:52.908Z,82.61
2023-04-02T10:39:52.902Z,83.13
2023-04-02T10:40:53.695Z,81.79
2023-04-02T10:41:52.886Z,82.40
2023-04-02T10:42:52.855Z,82.82
2023-04-02T10:43:52.843Z,81.93
2023-04-02T10:44:52.856Z,81.00
2023-04-02T10:45:52.881Z,82.75
2023-04-02T10:46:52.822Z,83.48
2023-04-02T10:47:52.906Z,84.61
2023-04-02T10:48:52.826Z,85.02
2023-04-02T10:49:52.848Z,84.41
2023-04-02T10:50:52.827Z,84.78
2023-04-02T10:51:52.771Z,85.85
2023-04-02T10:52:53.544Z,84.51
2023-04-02T10:53:52.749Z,84.92
2023-04-02T10:54:52.771Z,85.19
2023-04-02T10:55:52.737Z,84.67
2023-04-02T10:56:52.777Z,85.09
2023-04-02T10:57:52.703Z,84.16
2023-04-02T10:58:52.710Z,83.44
2023-04-02T10:59:52.681Z,83.33
2023-04-02T11:00:52.681Z,82.92
2023-04-02T11:01:52.777Z,83.64
2023-04-02T11:02:52.757Z,83.44
2023-04-02T11:03:52.786Z,83.58
2023-04-02T11:04:52.906Z,83.48
2023-04-02T11:05:52.623Z,83.78
2023-04-02T11:06:56.083Z,84.09
2023-04-02T11:07:52.616Z,83.99
2023-04-02T11:08:52.607Z,84.30
2023-04-02T11:09:52.588Z,84.36
2023-04-02T11:10:52.572Z,83.37
2023-04-02T11:11:52.578Z,82.65
2023-04-02T11:12:52.559Z,82.65
2023-04-02T11:13:52.573Z,82.24
2023-04-02T11:14:52.551Z,83.27
2023-04-02T11:15:52.543Z,83.31
2023-04-02T11:16:52.538Z,83.00
2023-04-02T11:17:52.510Z,82.89
2023-04-02T11:18:52.491Z,82.59
2023-04-02T11:19:52.508Z,82.48
2023-04-02T11:20:52.472Z,81.96
2023-04-02T11:21:58.501Z,82.89
2023-04-02T11:22:52.447Z,82.38
2023-04-02T11:23:52.425Z,83.34
2023-04-02T11:24:52.459Z,83.25
2023-04-02T11:25:52.407Z,83.41
2023-04-02T11:26:52.407Z,83.04
2023-04-02T11:27:52.392Z,82.83
2023-04-02T11:28:52.392Z,83.04
2023-04-02T11:29:52.412Z,83.65
2023-04-02T11:30:52.399Z,82.62
2023-04-02T11:31:52.429Z,82.73
2023-04-02T11:32:52.494Z,83.45
2023-04-02T11:33:52.361Z,82.62
2023-04-02T11:35:05.229Z,82.93
2023-04-02T11:35:52.372Z,82.93
2023-04-02T11:36:52.315Z,82.62
2023-04-02T11:37:52.309Z,83.34
2023-04-02T11:38:52.558Z,83.65
2023-04-02T11:39:52.278Z,83.76
2023-04-02T11:40:52.297Z,83.14
2023-04-02T11:41:52.267Z,83.25
2023-04-02T11:42:52.257Z,83.14
2023-04-02T11:43:52.268Z,82.00
2023-04-02T11:44:52.235Z,82.31
2023-04-02T11:45:53.466Z,82.52
2023-04-02T11:46:52.299Z,82.52
2023-04-02T11:47:52.231Z,82.52
2023-04-02T11:48:52.194Z,82.21
2023-04-02T11:49:52.175Z,82.31
2023-04-02T11:50:52.186Z,82.28
2023-04-02T11:51:56.551Z,82.07
2023-04-02T11:52:52.159Z,81.66
2023-04-02T11:53:52.149Z,81.24
2023-04-02T11:54:52.139Z,81.24
2023-04-02T11:55:52.125Z,80.52
2023-04-02T11:56:52.124Z,81.04
2023-04-02T11:57:52.145Z,81.14
2023-04-02T11:58:52.103Z,80.73
2023-04-02T11:59:52.085Z,81.04
2023-04-02T12:00:52.078Z,80.73
2023-04-02T12:01:52.054Z,80.46
2023-04-02T12:02:52.106Z,80.97
2023-04-02T12:03:52.037Z,80.46
2023-04-02T12:04:52.079Z,80.15
2023-04-02T12:05:52.012Z,80.97
2023-04-02T12:06:52.010Z,80.97
2023-04-02T12:07:52.075Z,81.80
2023-04-02T12:08:58.015Z,81.59
2023-04-02T12:09:51.979Z,81.38
2023-04-02T12:10:51.986Z,80.66
2023-04-02T12:11:52.196Z,81.28
2023-04-02T12:12:51.944Z,81.38
2023-04-02T12:13:51.970Z,80.56
2023-04-02T12:14:51.955Z,79.83
2023-04-02T12:15:51.899Z,80.66
2023-04-02T12:16:51.958Z,81.18
2023-04-02T12:17:51.938Z,81.28
2023-04-02T12:18:51.884Z,81.28
2023-04-02T12:19:51.888Z,81.28
2023-04-02T12:20:51.875Z,80.46
2023-04-02T12:21:51.879Z,80.18
2023-04-02T12:22:51.855Z,81.11
2023-04-02T12:23:51.842Z,81.21
2023-04-02T12:24:51.836Z,80.90
2023-04-02T12:25:51.809Z,81.21
2023-04-02T12:26:51.800Z,80.90
2023-04-02T12:27:51.790Z,81.01
2023-04-02T12:28:51.769Z,81.11
2023-04-02T12:29:51.792Z,80.90
2023-04-02T12:30:51.768Z,80.80
2023-04-02T12:31:51.733Z,80.39
2023-04-02T12:32:51.763Z,81.11
2023-04-02T12:33:51.735Z,80.90
2023-04-02T12:34:51.721Z,80.90
2023-04-02T12:35:51.755Z,81.32
2023-04-02T12:36:51.720Z,81.84
2023-04-02T12:37:51.697Z,81.84
2023-04-02T12:38:51.700Z,82.25
2023-04-02T12:39:51.664Z,81.11
2023-04-02T12:40:51.685Z,80.60
2023-04-02T12:41:51.645Z,81.11
2023-04-02T12:42:51.635Z,81.11
2023-04-02T12:43:51.656Z,80.60
2023-04-02T12:44:51.617Z,80.60
2023-04-02T12:45:51.627Z,81.21
2023-04-02T12:46:51.614Z,81.42
2023-04-02T12:47:51.589Z,81.84
2023-04-02T12:48:51.576Z,81.84
2023-04-02T12:49:51.568Z,81.73
2023-04-02T12:50:51.571Z,81.59
2023-04-02T12:51:51.575Z,81.90
2023-04-02T12:52:51.554Z,82.42